sensor_id;sensor_type;location;lat;lon;timestamp;temperature;humidity
84902;DHT22;75166;51.198;6.010;2024-02-26T00:01:54;9.10;72.90
84902;DHT22;75166;51.198;6.010;2024-02-26T00:04:20;9.10;72.90
84902;DHT22;75166;51.198;6.010;2024-02-26T00:06:47;9.10;73.00
84902;DHT22;75166;51.198;6.010;2024-02-26T00:09:13;9.00;73.00
84902;DHT22;75166;51.198;6.010;2024-02-26T00:11:39;9.00;73.00
84902;DHT22;75166;51.198;6.010;2024-02-26T00:14:04;9.10;73.10
84902;DHT22;75166;51.198;6.010;2024-02-26T00:16:30;9.00;73.00
84902;DHT22;75166;51.198;6.010;2024-02-26T00:18:56;9.10;73.10
84902;DHT22;75166;51.198;6.010;2024-02-26T00:21:22;9.10;73.00
84902;DHT22;75166;51.198;6.010;2024-02-26T00:23:49;9.10;73.00
84902;DHT22;75166;51.198;6.010;2024-02-26T00:26:16;9.10;73.00
84902;DHT22;75166;51.198;6.010;2024-02-26T00:28:41;9.00;73.10
84902;DHT22;75166;51.198;6.010;2024-02-26T00:31:07;9.00;73.20
84902;DHT22;75166;51.198;6.010;2024-02-26T00:33:32;9.00;73.20
84902;DHT22;75166;51.198;6.010;2024-02-26T00:35:58;9.00;73.20
84902;DHT22;75166;51.198;6.010;2024-02-26T00:38:24;9.00;73.20
84902;DHT22;75166;51.198;6.010;2024-02-26T00:40:49;9.00;73.20
84902;DHT22;75166;51.198;6.010;2024-02-26T00:43:15;9.00;73.20
84902;DHT22;75166;51.198;6.010;2024-02-26T00:45:41;9.00;73.20
84902;DHT22;75166;51.198;6.010;2024-02-26T00:48:06;9.10;73.30
84902;DHT22;75166;51.198;6.010;2024-02-26T00:50:33;9.00;73.30
84902;DHT22;75166;51.198;6.010;2024-02-26T00:52:59;9.00;73.50
84902;DHT22;75166;51.198;6.010;2024-02-26T00:55:25;9.00;73.60
84902;DHT22;75166;51.198;6.010;2024-02-26T00:57:51;9.00;73.50
84902;DHT22;75166;51.198;6.010;2024-02-26T01:00:17;9.00;73.50
84902;DHT22;75166;51.198;6.010;2024-02-26T01:02:42;9.00;73.50
84902;DHT22;75166;51.198;6.010;2024-02-26T01:05:08;9.00;73.40
84902;DHT22;75166;51.198;6.010;2024-02-26T01:07:37;9.00;73.60
84902;DHT22;75166;51.198;6.010;2024-02-26T01:10:03;9.00;73.60
84902;DHT22;75166;51.198;6.010;2024-02-26T01:12:29;9.00;73.70
84902;DHT22;75166;51.198;6.010;2024-02-26T01:14:55;9.00;73.80
84902;DHT22;75166;51.198;6.010;2024-02-26T01:17:21;8.90;73.80
84902;DHT22;75166;51.198;6.010;2024-02-26T01:19:46;8.90;73.80
84902;DHT22;75166;51.198;6.010;2024-02-26T01:22:12;8.90;73.80
84902;DHT22;75166;51.198;6.010;2024-02-26T01:24:37;8.90;73.80
84902;DHT22;75166;51.198;6.010;2024-02-26T01:27:03;9.00;73.90
84902;DHT22;75166;51.198;6.010;2024-02-26T01:29:29;9.00;73.90
84902;DHT22;75166;51.198;6.010;2024-02-26T01:31:54;8.90;73.90
84902;DHT22;75166;51.198;6.010;2024-02-26T01:34:20;8.90;74.00
84902;DHT22;75166;51.198;6.010;2024-02-26T01:36:46;8.90;74.10
84902;DHT22;75166;51.198;6.010;2024-02-26T01:39:12;8.90;74.30
84902;DHT22;75166;51.198;6.010;2024-02-26T01:41:41;8.90;74.30
84902;DHT22;75166;51.198;6.010;2024-02-26T01:44:07;8.90;74.30
84902;DHT22;75166;51.198;6.010;2024-02-26T01:46:34;8.90;74.30
84902;DHT22;75166;51.198;6.010;2024-02-26T01:49:01;8.90;74.30
84902;DHT22;75166;51.198;6.010;2024-02-26T01:51:27;8.90;74.30
84902;DHT22;75166;51.198;6.010;2024-02-26T01:53:54;8.90;74.30
84902;DHT22;75166;51.198;6.010;2024-02-26T01:56:20;8.90;74.40
84902;DHT22;75166;51.198;6.010;2024-02-26T01:58:46;8.90;74.50
84902;DHT22;75166;51.198;6.010;2024-02-26T02:01:15;8.90;74.60
84902;DHT22;75166;51.198;6.010;2024-02-26T02:03:41;8.90;74.70
84902;DHT22;75166;51.198;6.010;2024-02-26T02:06:07;8.80;74.50
84902;DHT22;75166;51.198;6.010;2024-02-26T02:08:34;8.80;74.60
84902;DHT22;75166;51.198;6.010;2024-02-26T02:11:00;8.90;74.70
84902;DHT22;75166;51.198;6.010;2024-02-26T02:13:26;8.90;74.60
84902;DHT22;75166;51.198;6.010;2024-02-26T02:15:52;8.90;74.70
84902;DHT22;75166;51.198;6.010;2024-02-26T02:18:19;8.80;74.70
84902;DHT22;75166;51.198;6.010;2024-02-26T02:20:44;8.80;74.80
84902;DHT22;75166;51.198;6.010;2024-02-26T02:23:10;8.80;74.90
84902;DHT22;75166;51.198;6.010;2024-02-26T02:25:36;8.80;75.00
84902;DHT22;75166;51.198;6.010;2024-02-26T02:28:02;8.80;75.00
84902;DHT22;75166;51.198;6.010;2024-02-26T02:30:29;8.80;75.00
84902;DHT22;75166;51.198;6.010;2024-02-26T02:32:55;8.80;75.00
84902;DHT22;75166;51.198;6.010;2024-02-26T02:35:22;8.80;74.90
84902;DHT22;75166;51.198;6.010;2024-02-26T02:37:48;8.80;74.90
84902;DHT22;75166;51.198;6.010;2024-02-26T02:40:14;8.80;75.00
84902;DHT22;75166;51.198;6.010;2024-02-26T02:42:39;8.80;75.10
84902;DHT22;75166;51.198;6.010;2024-02-26T02:45:05;8.80;75.20
84902;DHT22;75166;51.198;6.010;2024-02-26T02:47:31;8.80;76.10
84902;DHT22;75166;51.198;6.010;2024-02-26T02:49:56;8.80;75.30
84902;DHT22;75166;51.198;6.010;2024-02-26T02:52:22;8.80;75.30
84902;DHT22;75166;51.198;6.010;2024-02-26T02:54:48;8.80;75.30
84902;DHT22;75166;51.198;6.010;2024-02-26T02:57:13;8.80;75.30
84902;DHT22;75166;51.198;6.010;2024-02-26T02:59:39;8.80;75.40
84902;DHT22;75166;51.198;6.010;2024-02-26T03:02:05;8.80;75.40
84902;DHT22;75166;51.198;6.010;2024-02-26T03:04:31;8.80;75.40
84902;DHT22;75166;51.198;6.010;2024-02-26T03:06:57;8.70;75.40
84902;DHT22;75166;51.198;6.010;2024-02-26T03:09:23;8.70;75.60
84902;DHT22;75166;51.198;6.010;2024-02-26T03:11:49;8.70;75.60
84902;DHT22;75166;51.198;6.010;2024-02-26T03:14:14;8.70;75.60
84902;DHT22;75166;51.198;6.010;2024-02-26T03:16:41;8.70;75.60
84902;DHT22;75166;51.198;6.010;2024-02-26T03:19:07;8.70;75.70
84902;DHT22;75166;51.198;6.010;2024-02-26T03:21:32;8.70;75.70
84902;DHT22;75166;51.198;6.010;2024-02-26T03:23:58;8.70;75.60
84902;DHT22;75166;51.198;6.010;2024-02-26T03:26:23;8.70;75.80
84902;DHT22;75166;51.198;6.010;2024-02-26T03:28:49;8.70;75.80
84902;DHT22;75166;51.198;6.010;2024-02-26T03:31:15;8.70;76.00
84902;DHT22;75166;51.198;6.010;2024-02-26T03:33:40;8.70;76.10
84902;DHT22;75166;51.198;6.010;2024-02-26T03:36:06;8.70;76.00
84902;DHT22;75166;51.198;6.010;2024-02-26T03:38:33;8.70;76.00
84902;DHT22;75166;51.198;6.010;2024-02-26T03:40:58;8.70;76.00
84902;DHT22;75166;51.198;6.010;2024-02-26T03:43:24;8.70;76.00
84902;DHT22;75166;51.198;6.010;2024-02-26T03:45:49;8.70;76.00
84902;DHT22;75166;51.198;6.010;2024-02-26T03:48:15;8.70;75.90
84902;DHT22;75166;51.198;6.010;2024-02-26T03:50:41;8.70;76.00
84902;DHT22;75166;51.198;6.010;2024-02-26T03:53:06;8.70;76.20
84902;DHT22;75166;51.198;6.010;2024-02-26T03:55:34;8.70;76.30
84902;DHT22;75166;51.198;6.010;2024-02-26T03:58:00;8.60;76.20
84902;DHT22;75166;51.198;6.010;2024-02-26T04:00:26;8.70;76.30
84902;DHT22;75166;51.198;6.010;2024-02-26T04:02:54;8.60;76.30
84902;DHT22;75166;51.198;6.010;2024-02-26T04:05:19;8.70;76.30
84902;DHT22;75166;51.198;6.010;2024-02-26T04:07:45;8.70;76.30
84902;DHT22;75166;51.198;6.010;2024-02-26T04:10:11;8.70;76.30
84902;DHT22;75166;51.198;6.010;2024-02-26T04:12:41;8.70;76.30
84902;DHT22;75166;51.198;6.010;2024-02-26T04:15:10;8.70;76.50
84902;DHT22;75166;51.198;6.010;2024-02-26T04:17:36;8.70;76.60
84902;DHT22;75166;51.198;6.010;2024-02-26T04:20:03;8.60;76.50
84902;DHT22;75166;51.198;6.010;2024-02-26T04:22:28;8.60;76.60
84902;DHT22;75166;51.198;6.010;2024-02-26T04:24:54;8.60;76.50
84902;DHT22;75166;51.198;6.010;2024-02-26T04:27:20;8.60;76.70
84902;DHT22;75166;51.198;6.010;2024-02-26T04:29:45;8.60;76.60
84902;DHT22;75166;51.198;6.010;2024-02-26T04:32:11;8.60;76.50
84902;DHT22;75166;51.198;6.010;2024-02-26T04:34:36;8.60;76.50
84902;DHT22;75166;51.198;6.010;2024-02-26T04:37:02;8.60;76.60
84902;DHT22;75166;51.198;6.010;2024-02-26T04:39:28;8.60;76.70
84902;DHT22;75166;51.198;6.010;2024-02-26T04:41:54;8.60;76.70
84902;DHT22;75166;51.198;6.010;2024-02-26T04:44:20;8.60;76.80
84902;DHT22;75166;51.198;6.010;2024-02-26T04:46:45;8.60;76.80
84902;DHT22;75166;51.198;6.010;2024-02-26T04:49:11;8.60;76.80
84902;DHT22;75166;51.198;6.010;2024-02-26T04:51:37;8.60;76.80
84902;DHT22;75166;51.198;6.010;2024-02-26T04:54:02;8.60;76.70
84902;DHT22;75166;51.198;6.010;2024-02-26T04:56:28;8.60;76.70
84902;DHT22;75166;51.198;6.010;2024-02-26T04:58:54;8.60;77.20
84902;DHT22;75166;51.198;6.010;2024-02-26T05:01:19;8.60;76.90
84902;DHT22;75166;51.198;6.010;2024-02-26T05:03:45;8.50;77.00
84902;DHT22;75166;51.198;6.010;2024-02-26T05:06:10;8.50;76.90
84902;DHT22;75166;51.198;6.010;2024-02-26T05:08:36;8.50;76.90
84902;DHT22;75166;51.198;6.010;2024-02-26T05:11:03;8.60;76.90
84902;DHT22;75166;51.198;6.010;2024-02-26T05:13:29;8.50;76.90
84902;DHT22;75166;51.198;6.010;2024-02-26T05:15:55;8.60;77.00
84902;DHT22;75166;51.198;6.010;2024-02-26T05:18:22;8.50;76.90
84902;DHT22;75166;51.198;6.010;2024-02-26T05:20:47;8.50;77.00
84902;DHT22;75166;51.198;6.010;2024-02-26T05:23:13;8.50;77.10
84902;DHT22;75166;51.198;6.010;2024-02-26T05:25:39;8.50;77.20
84902;DHT22;75166;51.198;6.010;2024-02-26T05:28:04;8.50;77.30
84902;DHT22;75166;51.198;6.010;2024-02-26T05:30:30;8.50;77.40
84902;DHT22;75166;51.198;6.010;2024-02-26T05:32:56;8.40;77.20
84902;DHT22;75166;51.198;6.010;2024-02-26T05:35:21;8.60;77.30
84902;DHT22;75166;51.198;6.010;2024-02-26T05:37:47;8.50;77.30
84902;DHT22;75166;51.198;6.010;2024-02-26T05:40:13;8.50;77.20
84902;DHT22;75166;51.198;6.010;2024-02-26T05:42:38;8.50;77.30
84902;DHT22;75166;51.198;6.010;2024-02-26T05:45:05;8.40;77.30
84902;DHT22;75166;51.198;6.010;2024-02-26T05:47:35;8.50;77.40
84902;DHT22;75166;51.198;6.010;2024-02-26T05:50:01;8.40;77.40
84902;DHT22;75166;51.198;6.010;2024-02-26T05:52:27;8.50;77.50
84902;DHT22;75166;51.198;6.010;2024-02-26T05:54:54;8.50;77.50
84902;DHT22;75166;51.198;6.010;2024-02-26T05:57:20;8.50;77.40
84902;DHT22;75166;51.198;6.010;2024-02-26T05:59:46;8.40;77.30
84902;DHT22;75166;51.198;6.010;2024-02-26T06:02:11;8.50;77.30
84902;DHT22;75166;51.198;6.010;2024-02-26T06:04:37;8.50;77.30
84902;DHT22;75166;51.198;6.010;2024-02-26T06:07:02;8.40;77.40
84902;DHT22;75166;51.198;6.010;2024-02-26T06:09:28;8.40;77.50
84902;DHT22;75166;51.198;6.010;2024-02-26T06:11:53;8.40;77.90
84902;DHT22;75166;51.198;6.010;2024-02-26T06:14:19;8.40;77.70
84902;DHT22;75166;51.198;6.010;2024-02-26T06:16:46;8.40;78.00
84902;DHT22;75166;51.198;6.010;2024-02-26T06:19:11;8.40;77.80
84902;DHT22;75166;51.198;6.010;2024-02-26T06:21:37;8.40;77.70
84902;DHT22;75166;51.198;6.010;2024-02-26T06:24:03;8.50;77.70
84902;DHT22;75166;51.198;6.010;2024-02-26T06:26:28;8.50;77.70
84902;DHT22;75166;51.198;6.010;2024-02-26T06:28:55;8.40;77.70
84902;DHT22;75166;51.198;6.010;2024-02-26T06:31:22;8.40;77.60
84902;DHT22;75166;51.198;6.010;2024-02-26T06:33:48;8.40;77.60
84902;DHT22;75166;51.198;6.010;2024-02-26T06:36:15;8.40;77.70
84902;DHT22;75166;51.198;6.010;2024-02-26T06:38:41;8.40;77.90
84902;DHT22;75166;51.198;6.010;2024-02-26T06:41:06;8.40;77.90
84902;DHT22;75166;51.198;6.010;2024-02-26T06:43:32;8.40;77.80
84902;DHT22;75166;51.198;6.010;2024-02-26T06:45:58;8.40;77.80
84902;DHT22;75166;51.198;6.010;2024-02-26T06:48:24;8.40;77.90
84902;DHT22;75166;51.198;6.010;2024-02-26T06:50:50;8.40;77.80
84902;DHT22;75166;51.198;6.010;2024-02-26T06:53:16;8.40;77.80
84902;DHT22;75166;51.198;6.010;2024-02-26T06:55:42;8.40;77.80
84902;DHT22;75166;51.198;6.010;2024-02-26T06:58:08;8.40;78.00
84902;DHT22;75166;51.198;6.010;2024-02-26T07:00:34;8.40;78.00
84902;DHT22;75166;51.198;6.010;2024-02-26T07:03:00;8.40;78.10
84902;DHT22;75166;51.198;6.010;2024-02-26T07:05:26;8.40;78.10
84902;DHT22;75166;51.198;6.010;2024-02-26T07:07:52;8.30;78.10
84902;DHT22;75166;51.198;6.010;2024-02-26T07:10:18;8.30;78.10
84902;DHT22;75166;51.198;6.010;2024-02-26T07:12:44;8.30;78.10
84902;DHT22;75166;51.198;6.010;2024-02-26T07:15:10;8.40;78.10
84902;DHT22;75166;51.198;6.010;2024-02-26T07:17:36;8.40;78.20
84902;DHT22;75166;51.198;6.010;2024-02-26T07:20:02;8.30;78.10
84902;DHT22;75166;51.198;6.010;2024-02-26T07:22:30;8.30;78.30
84902;DHT22;75166;51.198;6.010;2024-02-26T07:24:55;8.30;78.30
84902;DHT22;75166;51.198;6.010;2024-02-26T07:27:21;8.30;78.30
84902;DHT22;75166;51.198;6.010;2024-02-26T07:29:47;8.30;78.30
84902;DHT22;75166;51.198;6.010;2024-02-26T07:32:12;8.30;78.40
84902;DHT22;75166;51.198;6.010;2024-02-26T07:34:38;8.30;78.30
84902;DHT22;75166;51.198;6.010;2024-02-26T07:37:07;8.30;78.30
84902;DHT22;75166;51.198;6.010;2024-02-26T07:39:33;8.30;78.30
84902;DHT22;75166;51.198;6.010;2024-02-26T07:41:59;8.30;78.20
84902;DHT22;75166;51.198;6.010;2024-02-26T07:44:25;8.30;78.30
84902;DHT22;75166;51.198;6.010;2024-02-26T07:46:50;8.30;78.50
84902;DHT22;75166;51.198;6.010;2024-02-26T07:49:16;8.30;78.50
84902;DHT22;75166;51.198;6.010;2024-02-26T07:51:42;8.30;78.50
84902;DHT22;75166;51.198;6.010;2024-02-26T07:54:07;8.30;78.50
84902;DHT22;75166;51.198;6.010;2024-02-26T07:56:33;8.30;78.50
84902;DHT22;75166;51.198;6.010;2024-02-26T07:58:59;8.30;78.60
84902;DHT22;75166;51.198;6.010;2024-02-26T08:01:24;8.30;78.70
84902;DHT22;75166;51.198;6.010;2024-02-26T08:03:53;8.30;78.50
84902;DHT22;75166;51.198;6.010;2024-02-26T08:06:18;8.30;78.70
84902;DHT22;75166;51.198;6.010;2024-02-26T08:08:44;8.30;78.70
84902;DHT22;75166;51.198;6.010;2024-02-26T08:11:10;8.30;78.80
84902;DHT22;75166;51.198;6.010;2024-02-26T08:13:35;8.20;79.00
84902;DHT22;75166;51.198;6.010;2024-02-26T08:16:01;8.20;78.80
84902;DHT22;75166;51.198;6.010;2024-02-26T08:18:27;8.30;79.00
84902;DHT22;75166;51.198;6.010;2024-02-26T08:20:52;8.30;78.90
84902;DHT22;75166;51.198;6.010;2024-02-26T08:23:18;8.30;78.70
84902;DHT22;75166;51.198;6.010;2024-02-26T08:25:44;8.30;78.80
84902;DHT22;75166;51.198;6.010;2024-02-26T08:28:09;8.30;78.70
84902;DHT22;75166;51.198;6.010;2024-02-26T08:30:38;8.30;78.60
84902;DHT22;75166;51.198;6.010;2024-02-26T08:33:04;8.30;78.70
84902;DHT22;75166;51.198;6.010;2024-02-26T08:35:30;8.30;78.80
84902;DHT22;75166;51.198;6.010;2024-02-26T08:37:55;8.20;79.00
84902;DHT22;75166;51.198;6.010;2024-02-26T08:40:21;8.20;79.00
84902;DHT22;75166;51.198;6.010;2024-02-26T08:42:47;8.30;79.00
84902;DHT22;75166;51.198;6.010;2024-02-26T08:45:12;8.30;78.90
84902;DHT22;75166;51.198;6.010;2024-02-26T08:47:38;8.30;78.90
84902;DHT22;75166;51.198;6.010;2024-02-26T08:50:04;8.30;78.90
84902;DHT22;75166;51.198;6.010;2024-02-26T08:52:30;8.30;78.80
84902;DHT22;75166;51.198;6.010;2024-02-26T08:54:56;8.30;78.90
84902;DHT22;75166;51.198;6.010;2024-02-26T08:57:22;8.20;79.00
84902;DHT22;75166;51.198;6.010;2024-02-26T08:59:48;8.30;79.10
84902;DHT22;75166;51.198;6.010;2024-02-26T09:02:13;8.20;79.10
84902;DHT22;75166;51.198;6.010;2024-02-26T09:04:39;8.30;79.10
84902;DHT22;75166;51.198;6.010;2024-02-26T09:07:05;8.30;79.00
84902;DHT22;75166;51.198;6.010;2024-02-26T09:09:31;8.30;79.00
84902;DHT22;75166;51.198;6.010;2024-02-26T09:11:57;8.30;79.00
84902;DHT22;75166;51.198;6.010;2024-02-26T09:14:23;8.30;79.00
84902;DHT22;75166;51.198;6.010;2024-02-26T09:16:49;8.30;79.00
84902;DHT22;75166;51.198;6.010;2024-02-26T09:19:15;8.30;79.00
84902;DHT22;75166;51.198;6.010;2024-02-26T09:21:44;8.30;79.00
84902;DHT22;75166;51.198;6.010;2024-02-26T09:24:11;8.30;79.20
84902;DHT22;75166;51.198;6.010;2024-02-26T09:26:37;8.30;79.20
84902;DHT22;75166;51.198;6.010;2024-02-26T09:29:02;8.40;79.30
84902;DHT22;75166;51.198;6.010;2024-02-26T09:31:30;8.20;79.20
84902;DHT22;75166;51.198;6.010;2024-02-26T09:33:55;8.30;79.20
84902;DHT22;75166;51.198;6.010;2024-02-26T09:36:21;8.30;79.20
84902;DHT22;75166;51.198;6.010;2024-02-26T09:38:47;8.30;79.10
84902;DHT22;75166;51.198;6.010;2024-02-26T09:41:14;8.30;79.10
84902;DHT22;75166;51.198;6.010;2024-02-26T09:43:44;8.30;79.20
84902;DHT22;75166;51.198;6.010;2024-02-26T09:46:10;8.20;79.30
84902;DHT22;75166;51.198;6.010;2024-02-26T09:48:37;8.30;79.40
84902;DHT22;75166;51.198;6.010;2024-02-26T09:51:03;8.20;79.40
84902;DHT22;75166;51.198;6.010;2024-02-26T09:53:30;8.30;79.40
84902;DHT22;75166;51.198;6.010;2024-02-26T09:55:58;8.20;79.30
84902;DHT22;75166;51.198;6.010;2024-02-26T09:58:25;8.20;79.30
84902;DHT22;75166;51.198;6.010;2024-02-26T10:00:56;8.30;79.40
84902;DHT22;75166;51.198;6.010;2024-02-26T10:03:30;8.30;79.40
84902;DHT22;75166;51.198;6.010;2024-02-26T10:05:56;8.30;79.30
84902;DHT22;75166;51.198;6.010;2024-02-26T10:08:23;8.30;79.50
84902;DHT22;75166;51.198;6.010;2024-02-26T10:10:50;8.20;79.60
84902;DHT22;75166;51.198;6.010;2024-02-26T10:13:16;8.30;79.60
84902;DHT22;75166;51.198;6.010;2024-02-26T10:15:41;8.30;79.60
84902;DHT22;75166;51.198;6.010;2024-02-26T10:18:07;8.30;79.50
84902;DHT22;75166;51.198;6.010;2024-02-26T10:20:33;8.30;79.50
84902;DHT22;75166;51.198;6.010;2024-02-26T10:23:02;8.30;79.60
84902;DHT22;75166;51.198;6.010;2024-02-26T10:25:28;8.30;79.60
84902;DHT22;75166;51.198;6.010;2024-02-26T10:27:54;8.30;79.60
84902;DHT22;75166;51.198;6.010;2024-02-26T10:30:21;8.30;79.60
84902;DHT22;75166;51.198;6.010;2024-02-26T10:32:48;8.30;79.70
84902;DHT22;75166;51.198;6.010;2024-02-26T10:35:15;8.20;79.90
84902;DHT22;75166;51.198;6.010;2024-02-26T10:37:41;8.20;79.90
84902;DHT22;75166;51.198;6.010;2024-02-26T10:40:16;8.20;79.90
84902;DHT22;75166;51.198;6.010;2024-02-26T10:42:43;8.20;79.90
84902;DHT22;75166;51.198;6.010;2024-02-26T10:45:09;8.30;80.00
84902;DHT22;75166;51.198;6.010;2024-02-26T10:47:36;8.30;80.00
84902;DHT22;75166;51.198;6.010;2024-02-26T10:50:03;8.20;80.00
84902;DHT22;75166;51.198;6.010;2024-02-26T10:52:32;8.20;80.10
84902;DHT22;75166;51.198;6.010;2024-02-26T10:55:02;8.20;80.20
84902;DHT22;75166;51.198;6.010;2024-02-26T10:57:32;8.20;80.30
84902;DHT22;75166;51.198;6.010;2024-02-26T11:00:00;8.20;80.30
84902;DHT22;75166;51.198;6.010;2024-02-26T11:02:33;8.20;80.20
84902;DHT22;75166;51.198;6.010;2024-02-26T11:05:05;8.20;80.20
84902;DHT22;75166;51.198;6.010;2024-02-26T11:07:31;8.30;80.10
84902;DHT22;75166;51.198;6.010;2024-02-26T11:10:00;8.30;80.10
84902;DHT22;75166;51.198;6.010;2024-02-26T11:12:28;8.30;80.30
84902;DHT22;75166;51.198;6.010;2024-02-26T11:14:55;8.30;80.10
84902;DHT22;75166;51.198;6.010;2024-02-26T11:17:27;8.30;80.30
84902;DHT22;75166;51.198;6.010;2024-02-26T11:19:56;8.30;80.30
84902;DHT22;75166;51.198;6.010;2024-02-26T11:22:24;8.20;80.60
84902;DHT22;75166;51.198;6.010;2024-02-26T11:24:52;8.30;80.40
84902;DHT22;75166;51.198;6.010;2024-02-26T11:27:23;8.30;80.30
84902;DHT22;75166;51.198;6.010;2024-02-26T11:29:52;8.30;80.30
84902;DHT22;75166;51.198;6.010;2024-02-26T11:32:18;8.30;80.30
84902;DHT22;75166;51.198;6.010;2024-02-26T11:34:44;8.30;80.10
84902;DHT22;75166;51.198;6.010;2024-02-26T11:37:14;8.40;80.00
84902;DHT22;75166;51.198;6.010;2024-02-26T11:39:41;8.30;80.20
84902;DHT22;75166;51.198;6.010;2024-02-26T11:42:07;8.30;80.10
84902;DHT22;75166;51.198;6.010;2024-02-26T11:44:34;8.30;80.40
84902;DHT22;75166;51.198;6.010;2024-02-26T11:47:10;8.30;80.40
84902;DHT22;75166;51.198;6.010;2024-02-26T11:49:35;8.30;80.30
84902;DHT22;75166;51.198;6.010;2024-02-26T11:52:06;8.30;80.30
84902;DHT22;75166;51.198;6.010;2024-02-26T11:54:52;8.30;80.30
84902;DHT22;75166;51.198;6.010;2024-02-26T12:00:21;8.30;80.30
84902;DHT22;75166;51.198;6.010;2024-02-26T12:02:52;8.30;80.20
84902;DHT22;75166;51.198;6.010;2024-02-26T12:05:35;8.40;80.50
84902;DHT22;75166;51.198;6.010;2024-02-26T12:08:04;8.30;80.50
84902;DHT22;75166;51.198;6.010;2024-02-26T12:15:46;8.30;80.50
84902;DHT22;75166;51.198;6.010;2024-02-26T12:18:20;8.30;80.70
84902;DHT22;75166;51.198;6.010;2024-02-26T12:20:56;8.40;80.50
84902;DHT22;75166;51.198;6.010;2024-02-26T12:23:23;8.40;80.60
84902;DHT22;75166;51.198;6.010;2024-02-26T12:25:49;8.40;80.60
84902;DHT22;75166;51.198;6.010;2024-02-26T12:28:15;8.30;80.80
84902;DHT22;75166;51.198;6.010;2024-02-26T12:30:41;8.30;80.80
84902;DHT22;75166;51.198;6.010;2024-02-26T12:33:06;8.30;80.70
84902;DHT22;75166;51.198;6.010;2024-02-26T12:35:35;8.30;80.90
84902;DHT22;75166;51.198;6.010;2024-02-26T12:38:00;8.30;80.90
84902;DHT22;75166;51.198;6.010;2024-02-26T12:40:26;8.30;80.70
84902;DHT22;75166;51.198;6.010;2024-02-26T12:42:54;8.30;80.90
84902;DHT22;75166;51.198;6.010;2024-02-26T12:45:20;8.30;80.90
84902;DHT22;75166;51.198;6.010;2024-02-26T12:47:46;8.40;81.10
84902;DHT22;75166;51.198;6.010;2024-02-26T12:50:13;8.40;81.00
84902;DHT22;75166;51.198;6.010;2024-02-26T12:52:44;8.30;81.10
84902;DHT22;75166;51.198;6.010;2024-02-26T12:55:15;8.30;81.20
84902;DHT22;75166;51.198;6.010;2024-02-26T12:57:42;8.30;81.10
84902;DHT22;75166;51.198;6.010;2024-02-26T13:00:13;8.30;81.20
84902;DHT22;75166;51.198;6.010;2024-02-26T13:02:41;8.40;81.20
84902;DHT22;75166;51.198;6.010;2024-02-26T13:05:08;8.40;81.20
84902;DHT22;75166;51.198;6.010;2024-02-26T13:07:40;8.40;81.00
84902;DHT22;75166;51.198;6.010;2024-02-26T13:10:06;8.40;81.10
84902;DHT22;75166;51.198;6.010;2024-02-26T13:12:32;8.40;81.00
84902;DHT22;75166;51.198;6.010;2024-02-26T13:15:02;8.40;81.00
84902;DHT22;75166;51.198;6.010;2024-02-26T13:17:31;8.40;81.40
84902;DHT22;75166;51.198;6.010;2024-02-26T13:19:57;8.40;81.20
84902;DHT22;75166;51.198;6.010;2024-02-26T13:22:22;8.40;81.20
84902;DHT22;75166;51.198;6.010;2024-02-26T13:24:59;8.40;81.30
84902;DHT22;75166;51.198;6.010;2024-02-26T13:27:25;8.40;81.10
84902;DHT22;75166;51.198;6.010;2024-02-26T13:30:11;8.40;81.20
84902;DHT22;75166;51.198;6.010;2024-02-26T13:32:39;8.40;81.90
84902;DHT22;75166;51.198;6.010;2024-02-26T13:35:09;8.50;81.20
84902;DHT22;75166;51.198;6.010;2024-02-26T13:37:35;8.50;81.20
84902;DHT22;75166;51.198;6.010;2024-02-26T13:40:05;8.40;81.20
84902;DHT22;75166;51.198;6.010;2024-02-26T13:42:31;8.50;81.40
84902;DHT22;75166;51.198;6.010;2024-02-26T13:44:57;8.40;81.20
84902;DHT22;75166;51.198;6.010;2024-02-26T13:47:22;8.50;81.40
84902;DHT22;75166;51.198;6.010;2024-02-26T13:49:48;8.50;81.50
84902;DHT22;75166;51.198;6.010;2024-02-26T13:52:14;8.50;81.40
84902;DHT22;75166;51.198;6.010;2024-02-26T13:54:39;8.50;81.30
84902;DHT22;75166;51.198;6.010;2024-02-26T13:57:06;8.50;81.60
84902;DHT22;75166;51.198;6.010;2024-02-26T13:59:32;8.50;81.60
84902;DHT22;75166;51.198;6.010;2024-02-26T14:01:57;8.50;81.60
84902;DHT22;75166;51.198;6.010;2024-02-26T14:04:23;8.50;82.00
84902;DHT22;75166;51.198;6.010;2024-02-26T14:06:49;8.50;81.80
84902;DHT22;75166;51.198;6.010;2024-02-26T14:09:14;8.50;81.80
84902;DHT22;75166;51.198;6.010;2024-02-26T14:11:45;8.50;81.60
84902;DHT22;75166;51.198;6.010;2024-02-26T14:14:11;8.50;81.60
84902;DHT22;75166;51.198;6.010;2024-02-26T14:16:36;8.50;81.60
84902;DHT22;75166;51.198;6.010;2024-02-26T14:19:02;8.60;81.60
84902;DHT22;75166;51.198;6.010;2024-02-26T14:21:28;8.60;81.60
84902;DHT22;75166;51.198;6.010;2024-02-26T14:23:55;8.60;81.60
84902;DHT22;75166;51.198;6.010;2024-02-26T14:26:24;8.60;81.80
84902;DHT22;75166;51.198;6.010;2024-02-26T14:28:50;8.60;82.00
84902;DHT22;75166;51.198;6.010;2024-02-26T14:31:18;8.50;81.70
84902;DHT22;75166;51.198;6.010;2024-02-26T14:33:44;8.60;81.60
84902;DHT22;75166;51.198;6.010;2024-02-26T14:36:10;8.60;81.70
84902;DHT22;75166;51.198;6.010;2024-02-26T14:38:37;8.60;81.60
84902;DHT22;75166;51.198;6.010;2024-02-26T14:41:03;8.60;81.40
84902;DHT22;75166;51.198;6.010;2024-02-26T14:43:29;8.70;81.40
84902;DHT22;75166;51.198;6.010;2024-02-26T14:45:57;8.70;81.60
84902;DHT22;75166;51.198;6.010;2024-02-26T14:48:22;8.70;81.70
84902;DHT22;75166;51.198;6.010;2024-02-26T14:50:48;8.60;81.60
84902;DHT22;75166;51.198;6.010;2024-02-26T14:53:14;8.60;81.60
84902;DHT22;75166;51.198;6.010;2024-02-26T14:55:40;8.70;81.70
84902;DHT22;75166;51.198;6.010;2024-02-26T14:58:06;8.70;81.60
84902;DHT22;75166;51.198;6.010;2024-02-26T15:00:31;8.70;81.70
84902;DHT22;75166;51.198;6.010;2024-02-26T15:02:59;8.70;81.60
84902;DHT22;75166;51.198;6.010;2024-02-26T15:05:25;8.70;81.60
84902;DHT22;75166;51.198;6.010;2024-02-26T15:07:50;8.70;81.60
84902;DHT22;75166;51.198;6.010;2024-02-26T15:10:16;8.70;81.60
84902;DHT22;75166;51.198;6.010;2024-02-26T15:12:42;8.70;81.60
84902;DHT22;75166;51.198;6.010;2024-02-26T15:15:08;8.70;81.60
84902;DHT22;75166;51.198;6.010;2024-02-26T15:17:33;8.70;81.60
84902;DHT22;75166;51.198;6.010;2024-02-26T15:20:00;8.70;81.60
84902;DHT22;75166;51.198;6.010;2024-02-26T15:22:27;8.70;81.50
84902;DHT22;75166;51.198;6.010;2024-02-26T15:24:52;8.80;81.50
84902;DHT22;75166;51.198;6.010;2024-02-26T15:27:18;8.80;81.50
84902;DHT22;75166;51.198;6.010;2024-02-26T15:29:44;8.80;81.50
84902;DHT22;75166;51.198;6.010;2024-02-26T15:32:10;8.80;81.50
84902;DHT22;75166;51.198;6.010;2024-02-26T15:34:36;8.80;81.40
84902;DHT22;75166;51.198;6.010;2024-02-26T15:37:02;8.70;81.50
84902;DHT22;75166;51.198;6.010;2024-02-26T15:39:28;8.70;81.50
84902;DHT22;75166;51.198;6.010;2024-02-26T15:41:56;8.70;81.40
84902;DHT22;75166;51.198;6.010;2024-02-26T15:44:22;8.70;81.40
84902;DHT22;75166;51.198;6.010;2024-02-26T15:46:48;8.80;81.50
84902;DHT22;75166;51.198;6.010;2024-02-26T15:49:14;8.80;81.40